KBLV/BLV METAR and TAF weather

Enter ICAO airport designator
Station Type Date Time Source
KBLV METAR 2019/10/20 19:56 UTC NOAA

KBLV 201956Z AUTO 21005KT 10SM FEW026 18/12 A2986 RMK AO2 SLP113 T01840117 $


Station Type Date Time Source
KBLV Decoded METAR 2019/10/20 19:56 UTC NOAA

Belleville, Scott AFB/MidAmerica Airport, IL, United States (KBLV) 38-33N 089-51W
Oct 20, 2019 - 03:56 PM EDT / 2019.10.20 1956 UTC
Wind: from the SSW (210 degrees) at 6 MPH (5 KT):0
Visibility: 10 mile(s):0
Sky conditions: mostly clear
Temperature: 65.1 F (18.4 C)
Dew Point: 53.1 F (11.7 C)
Relative Humidity: 64%
Pressure (altimeter): 29.86 in. Hg (1011 hPa)
ob: KBLV 201956Z AUTO 21005KT 10SM FEW026 18/12 A2986 RMK AO2 SLP113 T01840117
cycle: 20

Station Type Date Time Source
KBLV TAF 2019/10/20 16:03 UTC NOAA

TAF TAF KBLV 201600Z 2016/2122 VRB06KT 9999 OVC015 QNH2987INS
BECMG 2018/2019 VRB06KT 9999 OVC020 QNH2984INS
BECMG 2106/2107 15010KT 9999 OVC015 QNH2965INS
BECMG 2108/2109 15010KT 9000 -SHRA OVC015 QNH2961INS
TEMPO 2109/2112 15010G15KT 8000 -TSRA OVC010CB
BECMG 2114/2115 14010KT 9999 NSW BKN020 QNH2957INS
BECMG 2117/2118 28020G25KT 9999 SCT050 QNH2962INS TX19/2115Z TN15/2016Z

Example: see airport list